Time;durP1;ratioP1;P1;durP2;ratioP2;P2;SDS_P1;SDS_P2;PMS_P1;PMS_P2;Temp;Humidity;BMP_temperature;BMP_pressure;BME280_temperature;BME280_humidity;BME280_pressure;Samples;Min_cycle;Max_cycle;Signal;HPM_P1;HPM_P2
2021/11/21 00:00:03;;;;;;;958.80;892.70;;;;;;;10.99;63.91;100725.22;687991;28;22387;-69
2021/11/21 00:00:28;;;;;;;963.38;897.10;;;;;;;10.98;64.08;100728.09;686898;28;61688;-69
2021/11/21 00:00:50;;;;;;;960.75;894.65;;;;;;;11.02;64.11;100723.16;687295;28;46052;-69
2021/11/21 00:01:12;;;;;;;960.72;894.63;;;;;;;11.02;63.79;100723.16;686702;28;69405;-69
2021/11/21 00:01:33;;;;;;;960.28;894.08;;;;;;;11.02;63.73;100723.16;687166;28;22228;-69
2021/11/21 00:01:55;;;;;;;958.65;892.45;;;;;;;11.02;63.93;100723.16;687359;28;46312;-69
2021/11/21 00:02:16;;;;;;;963.00;896.80;;;;;;;11.00;63.84;100729.63;687620;28;21570;-69
2021/11/21 00:02:40;;;;;;;958.00;891.90;;;;;;;11.00;63.65;100723.34;686783;28;44346;-69
2021/11/21 00:03:01;;;;;;;955.92;889.95;;;;;;;10.99;63.62;100717.13;686710;28;69529;-69
2021/11/21 00:03:23;;;;;;;964.10;897.97;;;;;;;10.97;63.73;100715.59;687964;28;21275;-69
2021/11/21 00:03:44;;;;;;;967.58;901.35;;;;;;;10.95;64.01;100723.06;685988;28;45253;-69
2021/11/21 00:04:07;;;;;;;963.85;897.65;;;;;;;10.95;64.08;100729.28;689073;28;895;-69
2021/11/21 00:04:29;;;;;;;962.92;896.80;;;;;;;10.93;63.96;100717.84;685790;28;69385;-70
2021/11/21 00:04:52;;;;;;;950.40;884.78;;;;;;;10.92;64.12;100723.41;685588;28;21492;-70
2021/11/21 00:05:14;;;;;;;961.33;895.28;;;;;;;10.91;64.07;100725.28;684818;28;69413;-70
2021/11/21 00:05:40;;;;;;;963.63;897.45;;;;;;;10.91;63.98;100725.28;683716;28;67065;-70
2021/11/21 00:06:02;;;;;;;967.60;901.17;;;;;;;10.91;64.30;100725.28;681622;28;136482;-70
2021/11/21 00:06:23;;;;;;;967.75;901.33;;;;;;;10.91;64.27;100719.88;685581;28;22368;-70
2021/11/21 00:06:46;;;;;;;968.33;901.92;;;;;;;10.92;64.09;100726.94;686547;28;44326;-69
2021/11/21 00:07:08;;;;;;;974.38;907.80;;;;;;;10.92;63.95;100721.53;686721;28;69377;-69
2021/11/21 00:07:29;;;;;;;960.60;894.45;;;;;;;10.92;64.02;100728.81;687840;28;23479;-69
2021/11/21 00:07:51;;;;;;;962.03;895.53;;;;;;;10.93;64.25;100722.41;686782;28;44379;-69
2021/11/21 00:08:14;;;;;;;964.70;898.33;;;;;;;10.93;64.13;100717.84;687992;28;18064;-69
2021/11/21 00:08:35;;;;;;;962.90;896.50;;;;;;;10.94;64.22;100711.41;687102;28;67363;-69
2021/11/21 00:08:56;;;;;;;958.80;892.63;;;;;;;10.95;64.33;100723.88;687665;28;22209;-69
2021/11/21 00:09:18;;;;;;;960.10;894.03;;;;;;;10.95;64.09;100723.88;686847;28;46159;-69
2021/11/21 00:09:39;;;;;;;966.05;899.75;;;;;;;10.96;64.07;100714.78;688247;28;22518;-69
2021/11/21 00:10:01;;;;;;;966.88;900.55;;;;;;;10.96;63.85;100717.47;687546;28;23264;-69
2021/11/21 00:10:23;;;;;;;971.03;904.50;;;;;;;10.95;63.91;100715.78;685875;28;58294;-69
2021/11/21 00:10:44;;;;;;;961.80;895.55;;;;;;;10.93;63.84;100723.22;688254;28;22537;-69
2021/11/21 00:11:06;;;;;;;964.05;897.80;;;;;;;10.92;63.92;100707.19;687971;28;23475;-69
2021/11/21 00:11:28;;;;;;;960.22;894.08;;;;;;;10.93;64.31;100717.84;687180;28;46306;-69
2021/11/21 00:11:49;;;;;;;960.10;893.90;;;;;;;10.92;64.06;100718.00;687454;28;46356;-69
2021/11/21 00:12:11;;;;;;;964.22;897.83;;;;;;;10.91;64.22;100719.88;687267;28;46197;-69
2021/11/21 00:12:33;;;;;;;964.60;898.28;;;;;;;10.90;64.15;100710.09;688443;28;21206;-70
2021/11/21 00:12:55;;;;;;;955.58;889.53;;;;;;;10.91;64.28;100711.78;685979;28;65017;-70
2021/11/21 00:13:16;;;;;;;958.72;892.55;;;;;;;10.89;63.88;100716.50;687013;28;45249;-70
2021/11/21 00:13:37;;;;;;;961.03;894.85;;;;;;;10.89;64.09;100712.97;688517;28;20874;-70
2021/11/21 00:14:00;;;;;;;964.10;897.83;;;;;;;10.90;64.13;100709.25;687236;28;45229;-70
2021/11/21 00:14:22;;;;;;;958.83;892.75;;;;;;;10.88;64.21;100705.88;686653;28;46389;-69
2021/11/21 00:14:44;;;;;;;956.42;890.40;;;;;;;10.88;64.23;100714.84;686444;28;46202;-69
2021/11/21 00:15:07;;;;;;;968.22;901.83;;;;;;;10.88;64.13;100704.03;686686;28;45236;-69
2021/11/21 00:15:28;;;;;;;964.25;897.95;;;;;;;10.84;64.38;100705.41;686024;28;67335;-69
2021/11/21 00:15:51;;;;;;;962.80;896.60;;;;;;;10.88;64.29;100708.56;687281;28;44356;-69
2021/11/21 00:16:12;;;;;;;956.92;890.97;;;;;;;10.87;64.36;100707.75;689211;28;46263;-69
2021/11/21 00:16:34;;;;;;;967.88;901.58;;;;;;;10.88;64.45;100709.44;691088;28;21527;-69
2021/11/21 00:16:58;;;;;;;945.88;880.13;;;;;;;10.89;64.15;100705.69;687187;28;46311;-69
2021/11/21 00:17:20;;;;;;;954.85;888.85;;;;;;;10.88;64.09;100704.03;684984;28;92178;-69
2021/11/21 00:17:42;;;;;;;964.33;897.83;;;;;;;10.88;64.32;100704.03;684869;28;69214;-69
2021/11/21 00:18:05;;;;;;;964.33;897.78;;;;;;;10.88;64.13;100705.88;687583;28;21435;-69
2021/11/21 00:18:27;;;;;;;964.22;897.92;;;;;;;10.91;64.06;100713.63;686282;28;69453;-69
2021/11/21 00:18:49;;;;;;;965.05;898.67;;;;;;;10.91;64.00;100700.97;687163;28;44949;-69
2021/11/21 00:19:11;;;;;;;973.22;906.53;;;;;;;10.92;63.95;100707.19;687652;28;43773;-69
2021/11/21 00:19:32;;;;;;;965.47;899.08;;;;;;;10.90;64.15;100701.16;686178;28;44298;-70
2021/11/21 00:19:55;;;;;;;966.72;900.20;;;;;;;10.88;64.17;100701.31;687720;28;21532;-70
2021/11/21 00:20:17;;;;;;;966.75;900.25;;;;;;;10.88;64.23;100700.47;686215;28;68310;-69
2021/11/21 00:20:40;;;;;;;960.08;893.83;;;;;;;10.87;64.18;100699.63;683684;28;46384;-69
2021/11/21 00:21:01;;;;;;;961.40;895.15;;;;;;;10.88;64.34;100704.03;685967;28;67461;-69
2021/11/21 00:21:24;;;;;;;970.42;903.92;;;;;;;10.89;64.26;100702.16;687560;28;44193;-69
2021/11/21 00:21:45;;;;;;;966.53;900.15;;;;;;;10.90;64.10;100703.84;687164;28;45016;-69
2021/11/21 00:22:08;;;;;;;960.33;894.22;;;;;;;10.92;64.23;100704.50;688637;28;21513;-69
2021/11/21 00:22:34;;;;;;;959.90;893.80;;;;;;;10.92;64.13;100701.78;686269;28;68306;-69
2021/11/21 00:22:57;;;;;;;959.55;893.45;;;;;;;10.90;64.10;100690.34;681417;28;180391;-69
2021/11/21 00:23:19;;;;;;;962.67;896.50;;;;;;;10.89;63.87;100692.19;686122;28;69237;-69
2021/11/21 00:23:47;;;;;;;960.17;894.08;;;;;;;10.88;63.97;100697.75;688172;28;58475;-69
2021/11/21 00:24:10;;;;;;;951.80;886.00;;;;;;;10.87;64.03;100701.50;686510;28;44371;-69
2021/11/21 00:24:31;;;;;;;952.33;886.50;;;;;;;10.88;63.98;100687.81;687783;28;46503;-69
2021/11/21 00:24:53;;;;;;;946.55;880.83;;;;;;;10.91;63.96;100700.09;688144;28;22380;-69
2021/11/21 00:25:14;;;;;;;955.65;889.63;;;;;;;10.92;64.15;100699.94;686850;28;45199;-69
2021/11/21 00:25:36;;;;;;;966.17;899.83;;;;;;;10.91;63.85;100697.41;687321;28;22170;-69
2021/11/21 00:25:58;;;;;;;967.30;900.95;;;;;;;10.89;64.05;100697.59;688163;28;44457;-68
2021/11/21 00:26:19;;;;;;;958.90;892.85;;;;;;;10.91;63.88;100697.41;688370;28;20066;-69
2021/11/21 00:26:40;;;;;;;954.22;888.33;;;;;;;10.91;63.93;100702.81;689632;28;22462;-69
2021/11/21 00:27:03;;;;;;;963.20;896.95;;;;;;;10.92;64.23;100701.78;687581;28;45268;-69
2021/11/21 00:27:25;;;;;;;960.35;894.25;;;;;;;10.92;63.87;100691.81;688458;28;67359;-69
2021/11/21 00:27:46;;;;;;;954.90;888.83;;;;;;;10.92;63.86;100696.38;690310;28;22381;-69
2021/11/21 00:28:08;;;;;;;966.60;900.22;;;;;;;10.89;64.00;100692.19;687276;28;21620;-69
2021/11/21 00:28:30;;;;;;;958.15;892.17;;;;;;;10.88;63.87;100703.16;686943;28;69346;-69
2021/11/21 00:28:52;;;;;;;949.63;883.95;;;;;;;10.86;63.91;100700.69;688577;28;22437;-69
2021/11/21 00:29:13;;;;;;;964.17;898.08;;;;;;;10.86;64.14;100695.28;687563;28;46303;-69
2021/11/21 00:29:35;;;;;;;962.15;896.05;;;;;;;10.86;64.02;100692.56;689206;28;22390;-69
2021/11/21 00:29:57;;;;;;;954.70;888.75;;;;;;;10.86;63.96;100695.28;686497;28;67419;-69
2021/11/21 00:30:18;;;;;;;952.50;886.72;;;;;;;10.81;63.85;100690.41;686716;28;21560;-69
2021/11/21 00:30:39;;;;;;;960.30;894.25;;;;;;;10.84;63.91;100691.06;688846;28;22390;-69
2021/11/21 00:31:02;;;;;;;956.70;890.70;;;;;;;10.84;64.26;100693.75;687500;28;44390;-69
2021/11/21 00:31:23;;;;;;;960.30;894.20;;;;;;;10.86;64.14;100691.72;686894;28;46270;-69
2021/11/21 00:31:45;;;;;;;959.20;893.22;;;;;;;10.87;64.02;100698.81;683112;28;46082;-69
2021/11/21 00:32:07;;;;;;;960.15;894.08;;;;;;;10.90;64.02;100701.16;680920;29;21407;-69
2021/11/21 00:32:29;;;;;;;962.20;895.97;;;;;;;10.91;64.08;100697.41;680927;29;46271;-69
2021/11/21 00:32:50;;;;;;;957.13;891.13;;;;;;;10.91;64.16;100692.84;677638;29;46322;-69
2021/11/21 00:33:12;;;;;;;952.05;886.25;;;;;;;10.92;64.12;100694.53;678391;29;45291;-69
2021/11/21 00:33:34;;;;;;;965.05;898.67;;;;;;;10.92;64.07;100688.28;680241;28;21541;-69
2021/11/21 00:33:55;;;;;;;964.88;898.47;;;;;;;10.93;64.14;100700.78;685118;28;45072;-69
2021/11/21 00:34:17;;;;;;;958.20;892.17;;;;;;;10.93;64.06;100693.50;686387;28;44044;-69
2021/11/21 00:34:38;;;;;;;951.28;885.47;;;;;;;10.92;64.11;100691.00;688156;28;22386;-69
2021/11/21 00:35:02;;;;;;;955.35;889.40;;;;;;;10.93;63.67;100692.69;688960;28;21291;-69
2021/11/21 00:35:23;;;;;;;963.53;897.25;;;;;;;10.92;63.77;100693.69;685127;28;92972;-69
2021/11/21 00:35:45;;;;;;;942.63;876.95;;;;;;;10.92;63.62;100688.28;684236;28;44349;-69
2021/11/21 00:36:06;;;;;;;951.50;885.60;;;;;;;10.92;63.94;100688.28;686086;28;22381;-69
2021/11/21 00:36:28;;;;;;;962.15;895.85;;;;;;;10.91;63.69;100687.47;685472;28;23314;-69
2021/11/21 00:36:50;;;;;;;961.80;895.50;;;;;;;10.92;63.69;100688.28;684798;28;69359;-69
2021/11/21 00:37:11;;;;;;;973.88;907.22;;;;;;;10.91;63.83;100694.69;682398;28;22391;-69
2021/11/21 00:37:32;;;;;;;977.33;910.65;;;;;;;10.92;63.72;100699.09;683612;28;46257;-70
2021/11/21 00:37:55;;;;;;;971.20;904.45;;;;;;;10.92;63.84;100693.69;685555;28;43318;-70
2021/11/21 00:38:16;;;;;;;966.38;900.00;;;;;;;10.94;63.71;100714.13;687737;28;44372;-70
2021/11/21 00:38:38;;;;;;;971.53;904.95;;;;;;;10.94;63.83;100697.03;686604;28;46457;-70
2021/11/21 00:39:00;;;;;;;963.17;896.92;;;;;;;10.94;63.97;100683.53;688315;28;22253;-69
2021/11/21 00:39:22;;;;;;;953.90;887.90;;;;;;;10.92;63.58;100682.88;686531;28;69351;-69
2021/11/21 00:39:43;;;;;;;961.75;895.45;;;;;;;10.93;63.93;100688.09;688497;28;21525;-69
2021/11/21 00:40:06;;;;;;;974.80;908.15;;;;;;;10.93;63.82;100688.09;687740;28;46221;-69
2021/11/21 00:40:28;;;;;;;958.15;892.10;;;;;;;10.95;63.91;100687.94;687310;28;45414;-69
2021/11/21 00:40:51;;;;;;;961.15;894.97;;;;;;;10.96;64.08;100693.16;686564;28;69396;-69
2021/11/21 00:41:13;;;;;;;954.95;888.97;;;;;;;10.95;63.97;100694.16;686678;28;67495;-69
2021/11/21 00:41:34;;;;;;;958.03;891.92;;;;;;;10.95;63.63;100688.75;687370;28;23460;-69
2021/11/21 00:41:56;;;;;;;965.47;899.17;;;;;;;10.95;63.93;100696.03;688333;28;23235;-69
2021/11/21 00:42:18;;;;;;;975.15;908.45;;;;;;;10.99;63.92;100690.09;686399;28;67471;-69
2021/11/21 00:42:39;;;;;;;965.70;899.33;;;;;;;10.99;63.98;100690.09;687277;28;21303;-70
2021/11/21 00:43:01;;;;;;;961.03;894.78;;;;;;;11.00;63.65;100694.47;687496;28;44362;-69
2021/11/21 00:43:23;;;;;;;952.97;887.10;;;;;;;11.01;63.73;100695.31;688245;28;22507;-69
2021/11/21 00:43:44;;;;;;;952.15;886.25;;;;;;;11.00;63.84;100680.09;687261;28;47240;-69
2021/11/21 00:44:06;;;;;;;963.30;897.00;;;;;;;11.00;63.72;100694.47;687260;28;44486;-69
2021/11/21 00:44:30;;;;;;;964.05;897.85;;;;;;;11.03;63.90;100692.44;684898;28;92219;-70
2021/11/21 00:44:52;;;;;;;969.22;902.78;;;;;;;11.02;63.96;100694.31;687154;28;44437;-69
2021/11/21 00:45:13;;;;;;;963.88;897.67;;;;;;;11.01;63.60;100689.91;688102;28;23474;-69
2021/11/21 00:45:36;;;;;;;964.17;897.78;;;;;;;11.00;63.67;100674.69;686943;28;45186;-69
2021/11/21 00:45:57;;;;;;;961.50;895.30;;;;;;;10.99;63.79;100686.56;686972;28;46285;-69
2021/11/21 00:46:20;;;;;;;964.72;898.47;;;;;;;10.96;63.74;100668.00;687004;28;69428;-69
2021/11/21 00:46:41;;;;;;;960.88;894.70;;;;;;;10.97;63.64;100685.88;688378;28;21539;-70
2021/11/21 00:47:04;;;;;;;945.60;879.90;;;;;;;10.96;63.82;100674.22;688311;28;20890;-69
2021/11/21 00:47:25;;;;;;;949.80;883.97;;;;;;;10.95;63.73;100679.81;685880;28;67830;-69
2021/11/21 00:47:47;;;;;;;960.67;894.40;;;;;;;10.91;63.64;100682.06;684046;28;19996;-69
2021/11/21 00:48:08;;;;;;;961.85;895.60;;;;;;;10.92;63.28;100674.78;684470;28;44341;-70
2021/11/21 00:48:30;;;;;;;960.85;894.67;;;;;;;10.93;63.56;100681.88;683377;28;45221;-69
2021/11/21 00:48:52;;;;;;;970.75;904.25;;;;;;;10.94;63.60;100680.84;684976;28;23241;-69
2021/11/21 00:49:17;;;;;;;954.58;888.58;;;;;;;10.96;63.77;100684.22;684479;28;67436;-69
2021/11/21 00:49:39;;;;;;;963.38;897.00;;;;;;;10.95;63.63;100694.16;685449;28;92739;-69
2021/11/21 00:50:03;;;;;;;953.67;887.60;;;;;;;10.91;63.59;100679.34;686928;28;56011;-70
2021/11/21 00:50:28;;;;;;;956.15;890.15;;;;;;;10.92;63.59;100682.88;683104;28;91975;-69
2021/11/21 00:50:52;;;;;;;959.83;893.67;;;;;;;10.91;63.81;100686.59;684509;28;90896;-69
2021/11/21 00:51:15;;;;;;;967.13;900.75;;;;;;;10.89;63.77;100686.78;680593;28;115277;-69
2021/11/21 00:51:36;;;;;;;962.83;896.65;;;;;;;10.89;63.71;100685.94;684392;28;44370;-69
2021/11/21 00:51:59;;;;;;;957.75;891.67;;;;;;;10.88;63.77;100678.84;682795;28;45373;-69
2021/11/21 00:52:21;;;;;;;957.75;891.78;;;;;;;10.86;63.91;100689.00;684312;28;70263;-69
2021/11/21 00:52:43;;;;;;;965.70;899.47;;;;;;;10.87;63.78;100678.03;685392;28;46172;-69
2021/11/21 00:53:05;;;;;;;955.90;890.00;;;;;;;10.87;63.76;100690.69;689110;28;23471;-69
2021/11/21 00:53:28;;;;;;;959.28;893.38;;;;;;;10.86;63.81;100675.50;686138;28;67343;-69
2021/11/21 00:53:52;;;;;;;961.70;895.67;;;;;;;10.86;63.87;100683.59;688069;28;46284;-70
2021/11/21 00:54:25;;;;;;;956.67;890.83;;;;;;;10.84;64.04;100680.25;684931;28;113214;-70
2021/11/21 00:54:51;;;;;;;958.15;892.17;;;;;;;10.84;64.08;100682.94;678718;28;135971;-69
2021/11/21 00:55:15;;;;;;;960.80;894.72;;;;;;;10.82;63.77;100673.16;679342;28;137831;-69
2021/11/21 00:55:39;;;;;;;963.92;897.72;;;;;;;10.82;64.08;100675.03;681713;28;68413;-70
2021/11/21 00:56:04;;;;;;;961.58;894.95;;;;;;;10.84;63.90;100677.53;680124;28;115161;-70
2021/11/21 00:56:26;;;;;;;946.05;880.33;;;;;;;10.86;64.16;100689.00;679977;28;114999;-69
2021/11/21 00:56:47;;;;;;;956.72;890.78;;;;;;;10.87;64.14;100690.69;687487;28;22396;-70
2021/11/21 00:57:09;;;;;;;958.38;892.33;;;;;;;10.90;63.99;100679.53;687999;28;23496;-70
2021/11/21 00:57:31;;;;;;;960.33;894.10;;;;;;;10.88;64.05;100682.41;685323;28;67485;-70
2021/11/21 00:57:52;;;;;;;960.92;894.55;;;;;;;10.86;63.82;100670.94;686187;28;21543;-70
2021/11/21 00:58:13;;;;;;;956.05;890.05;;;;;;;10.88;64.08;100677.00;688565;28;23413;-70
2021/11/21 00:58:36;;;;;;;962.15;895.95;;;;;;;10.86;63.83;100675.50;688307;28;44374;-70
2021/11/21 00:58:58;;;;;;;963.85;897.55;;;;;;;10.85;63.94;100676.53;685723;28;69219;-70
2021/11/21 00:59:20;;;;;;;964.53;898.30;;;;;;;10.85;64.02;100677.38;688692;28;22256;-70
2021/11/21 00:59:41;;;;;;;963.05;896.78;;;;;;;10.85;63.82;100671.13;687423;28;45267;-70
2021/11/21 01:00:04;;;;;;;961.50;895.20;;;;;;;10.82;63.99;100683.97;686999;28;46311;-70
2021/11/21 01:00:26;;;;;;;968.95;902.55;;;;;;;10.84;63.91;100666.75;685356;28;69279;-69
2021/11/21 01:00:49;;;;;;;960.30;894.20;;;;;;;10.84;64.15;100677.53;687515;28;45230;-69
2021/11/21 01:01:11;;;;;;;959.90;893.78;;;;;;;10.82;63.87;100670.44;686203;28;70226;-69
2021/11/21 01:01:33;;;;;;;957.30;891.22;;;;;;;10.84;64.06;100674.84;688610;28;22417;-69
2021/11/21 01:01:55;;;;;;;968.97;902.38;;;;;;;10.83;64.24;100668.63;687404;28;46462;-69
2021/11/21 01:02:16;;;;;;;965.13;898.88;;;;;;;10.85;64.30;100668.44;687292;28;1376;-69
2021/11/21 01:02:39;;;;;;;957.47;891.35;;;;;;;10.87;64.08;100675.31;687145;28;44144;-69
2021/11/21 01:03:02;;;;;;;965.03;898.60;;;;;;;10.89;64.28;100669.72;687570;28;46423;-70
2021/11/21 01:03:25;;;;;;;966.40;900.00;;;;;;;10.91;63.91;100673.09;688861;28;941;-70
2021/11/21 01:03:48;;;;;;;964.55;898.15;;;;;;;10.93;64.21;100668.34;685491;28;92206;-70
2021/11/21 01:04:09;;;;;;;954.30;888.33;;;;;;;10.92;64.01;100663.97;687890;28;44364;-70
2021/11/21 01:04:32;;;;;;;963.13;896.80;;;;;;;10.93;64.13;100658.38;685768;28;44334;-69
2021/11/21 01:04:53;;;;;;;968.53;902.05;;;;;;;10.94;64.14;100664.63;687642;28;46368;-69
2021/11/21 01:05:16;;;;;;;967.28;900.85;;;;;;;10.93;63.81;100658.38;688196;28;23319;-69
2021/11/21 01:05:37;;;;;;;962.15;896.03;;;;;;;10.94;63.86;100667.31;686225;28;69450;-69
2021/11/21 01:06:00;;;;;;;959.60;893.45;;;;;;;10.92;63.54;100653.16;687891;28;22386;-69
2021/11/21 01:06:22;;;;;;;956.63;890.63;;;;;;;10.90;63.80;100655.22;685799;28;92230;-69
2021/11/21 01:06:45;;;;;;;966.50;900.15;;;;;;;10.89;63.71;100653.53;686171;28;69122;-69
2021/11/21 01:07:06;;;;;;;962.35;896.15;;;;;;;10.89;63.69;100656.22;688323;28;22376;-69
2021/11/21 01:07:28;;;;;;;954.97;889.08;;;;;;;10.87;63.87;100664.50;687657;28;21183;-69
2021/11/21 01:07:50;;;;;;;959.92;893.65;;;;;;;10.86;63.96;100651.19;686739;28;44844;-69
2021/11/21 01:08:12;;;;;;;961.40;895.20;;;;;;;10.86;63.91;100662.84;687025;28;45418;-69
2021/11/21 01:08:33;;;;;;;956.08;890.00;;;;;;;10.88;63.92;100673.44;685951;28;16402;-69
2021/11/21 01:08:56;;;;;;;972.58;905.88;;;;;;;10.86;63.71;100664.69;688785;28;21627;-69
2021/11/21 01:09:18;;;;;;;956.55;890.45;;;;;;;10.84;63.82;100669.44;687382;28;45282;-69
2021/11/21 01:09:39;;;;;;;954.78;888.78;;;;;;;10.84;63.70;100670.28;688650;28;45251;-69
2021/11/21 01:10:01;;;;;;;954.40;888.40;;;;;;;10.84;63.59;100670.28;687759;28;44186;-69
2021/11/21 01:10:24;;;;;;;956.03;890.03;;;;;;;10.82;63.78;100664.22;689167;28;1345;-69
2021/11/21 01:10:48;;;;;;;958.85;892.75;;;;;;;10.82;64.06;100661.53;683319;28;92757;-70
2021/11/21 01:11:09;;;;;;;960.47;894.33;;;;;;;10.80;63.99;100667.09;687174;28;69479;-69
2021/11/21 01:11:31;;;;;;;960.42;894.33;;;;;;;10.79;63.81;100662.72;689754;28;45280;-69
2021/11/21 01:11:54;;;;;;;961.53;895.38;;;;;;;10.79;64.25;100667.28;690618;28;21557;-69
2021/11/21 01:12:16;;;;;;;960.65;894.50;;;;;;;10.79;63.99;100670.81;687152;28;69390;-69
2021/11/21 01:12:40;;;;;;;961.38;895.15;;;;;;;10.80;63.90;100669.81;684035;28;69293;-69
2021/11/21 01:13:01;;;;;;;968.53;901.92;;;;;;;10.80;63.89;100667.09;682565;28;68361;-70
2021/11/21 01:13:25;;;;;;;960.83;894.63;;;;;;;10.81;63.88;100666.09;683445;28;45222;-70
2021/11/21 01:13:46;;;;;;;976.67;909.95;;;;;;;10.80;63.87;100664.41;682538;28;69508;-69
2021/11/21 01:14:08;;;;;;;969.28;902.83;;;;;;;10.82;63.92;100662.34;684037;28;44494;-69
2021/11/21 01:14:29;;;;;;;960.08;894.00;;;;;;;10.80;63.63;100661.69;686306;28;46381;-69
2021/11/21 01:14:52;;;;;;;964.55;898.25;;;;;;;10.83;63.81;100663.22;688449;28;21535;-69
2021/11/21 01:15:18;;;;;;;970.08;903.58;;;;;;;10.84;63.90;100647.81;686938;28;44400;-69
2021/11/21 01:15:40;;;;;;;970.50;904.00;;;;;;;10.86;63.92;100668.25;684753;28;137588;-69
2021/11/21 01:16:02;;;;;;;975.45;908.85;;;;;;;10.86;63.86;100662.00;688024;28;46179;-69
2021/11/21 01:16:26;;;;;;;970.67;904.30;;;;;;;10.86;64.09;100662.00;684200;28;44368;-69
2021/11/21 01:16:47;;;;;;;964.72;898.50;;;;;;;10.85;63.67;100654.91;683970;28;69298;-69
2021/11/21 01:17:08;;;;;;;960.90;894.85;;;;;;;10.82;63.84;100656.94;685908;28;44383;-70
2021/11/21 01:17:30;;;;;;;958.00;892.08;;;;;;;10.85;63.91;100661.16;685660;28;1393;-69
2021/11/21 01:17:54;;;;;;;956.20;890.30;;;;;;;10.86;63.75;100648.47;684099;28;23518;-69
2021/11/21 01:18:16;;;;;;;957.60;891.70;;;;;;;10.82;63.86;100651.53;685273;28;115810;-69
2021/11/21 01:18:37;;;;;;;958.35;892.40;;;;;;;10.84;63.79;100653.22;688328;28;22400;-69
2021/11/21 01:19:01;;;;;;;971.30;904.80;;;;;;;10.81;63.82;100654.41;684873;28;92290;-69
2021/11/21 01:19:23;;;;;;;966.33;900.03;;;;;;;10.81;64.02;100654.41;686227;28;23418;-69
2021/11/21 01:19:44;;;;;;;965.28;898.97;;;;;;;10.80;63.98;100659.00;687058;28;69439;-69
2021/11/21 01:20:08;;;;;;;964.83;898.58;;;;;;;10.81;63.84;100654.41;688841;28;23470;-69
2021/11/21 01:20:34;;;;;;;968.58;902.28;;;;;;;10.79;63.98;100651.91;685421;28;92275;-69
2021/11/21 01:20:56;;;;;;;966.30;899.90;;;;;;;10.78;63.89;100663.75;684344;28;116157;-69
2021/11/21 01:21:17;;;;;;;954.67;888.67;;;;;;;10.79;64.13;100654.59;684666;28;69343;-69
2021/11/21 01:21:39;;;;;;;970.83;904.22;;;;;;;10.77;64.19;100656.66;689236;28;22386;-69
2021/11/21 01:22:00;;;;;;;966.15;899.70;;;;;;;10.76;64.32;100659.53;687486;28;23439;-69
2021/11/21 01:22:23;;;;;;;959.47;893.38;;;;;;;10.78;63.98;100661.03;687191;28;44375;-69
2021/11/21 01:22:45;;;;;;;961.78;895.50;;;;;;;10.76;64.07;100660.38;688253;28;46451;-69
2021/11/21 01:23:06;;;;;;;957.20;891.15;;;;;;;10.76;64.23;100657.66;690489;28;45415;-69
2021/11/21 01:23:29;;;;;;;960.83;894.75;;;;;;;10.76;64.01;100660.38;689707;28;46343;-69
2021/11/21 01:23:51;;;;;;;948.70;882.92;;;;;;;10.76;64.39;100657.66;689839;28;46195;-69
2021/11/21 01:24:12;;;;;;;953.05;887.25;;;;;;;10.76;64.33;100654.97;689818;28;46214;-69
2021/11/21 01:24:34;;;;;;;961.00;894.83;;;;;;;10.78;64.08;100657.47;689277;28;45197;-69
2021/11/21 01:24:56;;;;;;;957.30;891.30;;;;;;;10.78;64.11;100649.38;688832;28;21513;-69
2021/11/21 01:25:18;;;;;;;962.45;896.22;;;;;;;10.77;64.13;100659.34;686629;28;68319;-69
2021/11/21 01:25:40;;;;;;;952.80;886.90;;;;;;;10.77;63.99;100650.41;687236;28;46318;-69
2021/11/21 01:26:01;;;;;;;954.13;888.20;;;;;;;10.77;64.14;100648.56;687279;28;48022;-69
2021/11/21 01:26:24;;;;;;;961.50;895.35;;;;;;;10.79;64.03;100642.97;687880;28;22441;-69
2021/11/21 01:26:45;;;;;;;951.67;885.88;;;;;;;10.79;64.12;100656.47;686475;28;46326;-69
2021/11/21 01:27:07;;;;;;;961.88;895.67;;;;;;;10.79;64.33;100668.09;684525;28;44100;-69
2021/11/21 01:27:28;;;;;;;960.95;894.83;;;;;;;10.78;64.06;100650.25;684872;28;21313;-69
2021/11/21 01:27:51;;;;;;;956.47;890.38;;;;;;;10.79;64.07;100643.78;682709;28;44372;-69
2021/11/21 01:28:13;;;;;;;974.45;907.85;;;;;;;10.81;64.02;100662.53;684708;28;70289;-69
2021/11/21 01:28:34;;;;;;;978.00;911.20;;;;;;;10.82;64.03;100645.31;684911;28;46316;-69
2021/11/21 01:28:56;;;;;;;962.22;895.95;;;;;;;10.80;63.95;100634.69;686277;28;23475;-69
2021/11/21 01:29:18;;;;;;;947.80;882.10;;;;;;;10.82;63.87;100643.44;687849;28;22473;-69
2021/11/21 01:29:39;;;;;;;966.78;900.30;;;;;;;10.81;63.90;100639.06;687066;28;69463;-69
2021/11/21 01:30:01;;;;;;;960.85;894.65;;;;;;;10.80;63.99;100645.50;688391;28;22385;-69
2021/11/21 01:30:25;;;;;;;952.90;887.08;;;;;;;10.82;63.92;100656.13;687492;28;21524;-69
2021/11/21 01:30:47;;;;;;;958.40;892.30;;;;;;;10.87;64.24;100644.75;684744;28;113305;-69
2021/11/21 01:31:09;;;;;;;963.03;896.75;;;;;;;10.87;64.19;100636.66;689477;28;23470;-69
2021/11/21 01:31:30;;;;;;;954.90;888.90;;;;;;;10.87;64.14;100642.06;686221;28;67286;-69
2021/11/21 01:31:52;;;;;;;959.15;892.95;;;;;;;10.88;64.09;100639.19;687736;28;22335;-69
2021/11/21 01:32:13;;;;;;;957.78;891.75;;;;;;;10.89;64.08;100648.13;688563;28;21532;-69
2021/11/21 01:32:34;;;;;;;956.67;890.65;;;;;;;10.89;64.06;100632.72;685686;28;45074;-69
2021/11/21 01:32:59;;;;;;;958.72;892.58;;;;;;;10.89;64.11;100638.13;687218;28;23443;-69
2021/11/21 01:33:21;;;;;;;968.40;902.00;;;;;;;10.89;63.67;100637.31;685660;28;92230;-69
2021/11/21 01:33:43;;;;;;;965.28;898.97;;;;;;;10.89;64.00;100645.41;686921;28;69604;-70
2021/11/21 01:34:04;;;;;;;964.88;898.60;;;;;;;10.89;63.62;100642.72;689196;28;22545;-70
2021/11/21 01:34:27;;;;;;;966.75;900.45;;;;;;;10.87;63.62;100645.59;689747;28;44131;-69
2021/11/21 01:34:48;;;;;;;952.00;886.10;;;;;;;10.84;63.60;100640.56;690800;28;46312;-69
2021/11/21 01:35:10;;;;;;;956.75;890.65;;;;;;;10.81;63.54;100639.06;691070;28;22387;-69
2021/11/21 01:35:33;;;;;;;954.30;888.38;;;;;;;10.79;63.64;100634.88;690378;28;1951;-69
2021/11/21 01:35:56;;;;;;;946.78;881.05;;;;;;;10.79;63.77;100632.16;689122;28;92219;-69
2021/11/21 01:36:17;;;;;;;952.65;886.75;;;;;;;10.80;63.80;100633.84;688373;28;44201;-69
2021/11/21 01:36:39;;;;;;;965.80;899.45;;;;;;;10.78;64.10;100620.53;687678;28;46230;-69
2021/11/21 01:37:00;;;;;;;954.90;888.85;;;;;;;10.79;63.82;100642.97;688692;28;21546;-69
2021/11/21 01:37:22;;;;;;;951.10;885.30;;;;;;;10.81;63.80;100627.41;685554;28;45317;-69
2021/11/21 01:37:44;;;;;;;955.65;889.45;;;;;;;10.80;63.88;100631.16;685940;28;44360;-69
2021/11/21 01:38:06;;;;;;;952.15;886.10;;;;;;;10.80;64.09;100631.97;687644;28;46291;-69
2021/11/21 01:38:29;;;;;;;943.75;878.17;;;;;;;10.80;63.81;100640.09;689382;28;44302;-69
2021/11/21 01:38:50;;;;;;;970.13;903.60;;;;;;;10.81;63.87;100632.81;690167;28;45086;-69
2021/11/21 01:39:12;;;;;;;957.38;891.28;;;;;;;10.80;63.79;100629.28;690656;28;44382;-69
2021/11/21 01:39:33;;;;;;;950.20;884.37;;;;;;;10.81;63.85;100625.56;690003;28;23263;-69